Bartlett, Tennessee
Current Conditions -  °F | °C
As of 6:50 PM on Saturday 25 Oct 2014 (Local Time) from KNQA Reporting Station
Clear Clear  
Wind Chill: 73°   Ceiling: Unl
Heat Index: 73°   Visibility: 10mi
Dew Point: 66°   Wind: 0mph
Humidity: 78%   Direction: NA
Pressure: 30.02"   Gusts: NA
Location:  35.2°N, 89.85°W
Report Text: KNQA 252350Z 00000KT 10SM SKC 23/19 A3002
Loading
Personal Weather Stations






























Interactive Weather Map
Tropical Storm Tracking
New forecast layout! Learn more

10-Day Weather Forecast

Advertisements
Track Severe Weather on mobile